Weather at Mc Jilton Field

Public forecast

Using degrees Fahrenheit for public forecast. Weather courtesy of forecast.io.

Closest aviation weather report (METAR) to Mc Jilton Field

Closest report is Gratiot Community Airport, 7.1 nm (13.2 km) SW. Retrieved 2020/09/25 10:15 UTC (18 minutes ago):

KAMN 251015Z AUTO 00000KT 1/2SM FG OVC003 09/08 A3001 RMK AO2

Closest aviation forecast (TAF) to Mc Jilton Field

Closest forecast is MBS International Airport, 22.8 nm (42.1 km) ENE. Retrieved 2020/09/25 06:22 UTC (4 hours ago):

TAF KMBS 250520Z 2506/2606 21005KT P6SM BKN060 TEMPO 2506/2509 1/2SM FG VV003 FM250900 VRB03KT 5SM HZ SCT200 FM251300 21005KT P6SM SCT200 FM251900 20008KT P6SM SKC